Time;durP1;ratioP1;P1;durP2;ratioP2;P2;SDS_P1;SDS_P2;PMS_P1;PMS_P2;Temp;Humidity;BMP_temperature;BMP_pressure;BME280_temperature;BME280_humidity;BME280_pressure;Samples;Min_cycle;Max_cycle;Signal;HPM_P1;HPM_P2
2023/08/08 00:00:45;;;;;;;3.30;1.40;;;;;;;13.24;91.17;100055.24;105210;1258;69113;-62
2023/08/08 00:03:32;;;;;;;8.50;2.00;;;;;;;13.24;91.06;100057.36;105190;1258;74700;-62
2023/08/08 00:06:00;;;;;;;4.70;1.70;;;;;;;13.22;91.11;100062.52;105348;1258;83438;-62
2023/08/08 00:08:27;;;;;;;6.70;1.60;;;;;;;13.19;90.89;100062.73;105238;1256;73726;-63
2023/08/08 00:10:54;;;;;;;4.90;1.60;;;;;;;13.15;90.72;100068.86;105285;1256;69219;-63
2023/08/08 00:13:20;;;;;;;6.00;1.50;;;;;;;13.13;90.77;100073.67;105258;1256;69159;-62
2023/08/08 00:15:47;;;;;;;8.70;2.10;;;;;;;13.11;90.95;100076.27;105280;1256;75857;-62
2023/08/08 00:18:15;;;;;;;3.40;1.70;;;;;;;13.09;90.87;100078.85;105317;1256;83499;-62
2023/08/08 00:20:42;;;;;;;4.80;2.20;;;;;;;13.07;91.03;100082.43;105266;1257;73816;-62
2023/08/08 00:23:09;;;;;;;6.90;1.80;;;;;;;13.07;90.93;100085.09;105372;1257;69315;-63
2023/08/08 00:25:37;;;;;;;6.50;2.00;;;;;;;13.08;91.01;100091.35;105275;1258;69113;-62
2023/08/08 00:28:03;;;;;;;5.40;2.10;;;;;;;13.10;90.93;100085.80;105168;1261;74366;-62
2023/08/08 00:30:30;;;;;;;4.00;1.70;;;;;;;13.09;90.91;100084.41;105284;1256;83524;-62
2023/08/08 00:32:58;;;;;;;4.30;1.80;;;;;;;13.09;90.76;100080.04;105076;1257;73865;-62
2023/08/08 00:35:25;;;;;;;4.50;1.50;;;;;;;13.09;90.74;100080.38;105266;1256;69120;-62
2023/08/08 00:37:51;;;;;;;4.40;1.30;;;;;;;13.09;90.75;100076.89;105120;1260;69212;-64
2023/08/08 00:40:18;;;;;;;4.40;1.60;;;;;;;13.10;90.61;100070.69;105277;1256;74462;-64
2023/08/08 00:42:45;;;;;;;3.70;1.20;;;;;;;13.13;90.59;100074.56;105097;1260;83442;-64
2023/08/08 00:45:12;;;;;;;6.80;1.50;;;;;;;13.14;90.52;100076.13;105180;1256;72723;-64
2023/08/08 00:47:39;;;;;;;6.40;1.70;;;;;;;13.14;90.42;100081.36;105264;1258;69298;-64
2023/08/08 00:50:08;;;;;;;5.60;1.60;;;;;;;13.15;90.38;100081.10;105348;1259;69142;-64
2023/08/08 00:52:36;;;;;;;3.30;1.30;;;;;;;13.17;90.04;100082.44;105151;1260;74671;-64
2023/08/08 00:55:03;;;;;;;4.10;1.70;;;;;;;13.16;89.95;100085.11;105342;1259;83555;-64
2023/08/08 00:57:30;;;;;;;4.70;1.30;;;;;;;13.15;89.66;100092.90;105368;1256;72719;-64
2023/08/08 00:59:57;;;;;;;4.50;1.60;;;;;;;13.13;89.67;100090.34;105260;1256;69178;-64
2023/08/08 01:02:24;;;;;;;4.80;1.70;;;;;;;13.12;89.53;100087.77;105314;1258;69193;-64
2023/08/08 01:04:52;;;;;;;3.20;1.20;;;;;;;13.11;89.33;100090.81;105293;1256;75771;-64
2023/08/08 01:07:30;;;;;;;6.70;2.20;;;;;;;13.10;89.25;100094.42;105104;1261;83253;-64
2023/08/08 01:10:07;;;;;;;5.70;1.90;;;;;;;13.05;89.22;100093.09;105137;1256;74370;-64
2023/08/08 01:12:39;;;;;;;3.10;1.60;;;;;;;13.03;89.10;100096.53;105296;1256;69200;-64
2023/08/08 01:15:08;;;;;;;3.80;1.50;;;;;;;13.00;88.97;100097.20;105297;1256;69011;-64
2023/08/08 01:17:36;;;;;;;4.80;1.70;;;;;;;12.97;88.99;100102.11;105140;1257;74708;-64
2023/08/08 01:20:05;;;;;;;3.60;1.30;;;;;;;12.93;89.03;100098.41;105318;1258;83316;-64
2023/08/08 01:22:40;;;;;;;;;;;;;;;12.91;89.09;100099.43;105354;1257;72640;-64
2023/08/08 01:25:08;;;;;;;3.30;1.60;;;;;;;12.86;88.95;100095.98;105240;1258;69195;-64
2023/08/08 01:27:35;;;;;;;3.90;1.30;;;;;;;12.82;88.84;100097.80;105324;1258;69222;-64
2023/08/08 01:30:03;;;;;;;4.90;1.60;;;;;;;12.77;88.97;100098.05;105280;1256;75590;-64
2023/08/08 01:32:30;;;;;;;3.20;1.60;;;;;;;12.71;89.04;100101.63;105273;1258;83380;-64
2023/08/08 01:34:58;;;;;;;4.80;1.50;;;;;;;12.69;89.04;100097.73;105227;1256;73606;-64
2023/08/08 01:37:47;;;;;;;4.30;1.70;;;;;;;12.66;89.22;100101.75;105174;1257;69173;-64
2023/08/08 01:40:17;;;;;;;3.50;1.30;;;;;;;12.61;89.34;100099.88;105332;1257;69127;-64
2023/08/08 01:42:46;;;;;;;2.70;1.20;;;;;;;12.57;89.58;100095.88;105179;1261;75611;-64
2023/08/08 01:45:15;;;;;;;4.90;1.50;;;;;;;12.54;89.50;100101.31;105281;1256;82211;-64
2023/08/08 01:47:42;;;;;;;3.30;1.20;;;;;;;12.52;89.67;100099.64;105161;1256;72686;-64
2023/08/08 01:50:09;;;;;;;5.90;1.60;;;;;;;12.50;89.68;100096.93;105163;1260;69234;-64
2023/08/08 01:52:36;;;;;;;7.20;1.50;;;;;;;12.49;89.94;100098.53;105209;1258;69178;-64
2023/08/08 01:55:04;;;;;;;5.30;1.70;;;;;;;12.49;89.88;100092.23;105178;1256;75728;-64
2023/08/08 01:57:31;;;;;;;4.50;1.30;;;;;;;12.49;90.17;100090.98;105314;1255;83348;-64
2023/08/08 01:59:59;;;;;;;4.50;1.50;;;;;;;12.49;90.08;100088.02;105258;1257;72726;-64
2023/08/08 02:02:26;;;;;;;4.10;1.20;;;;;;;12.48;90.14;100087.56;105124;1261;69114;-64
2023/08/08 02:04:53;;;;;;;3.10;1.30;;;;;;;12.48;90.15;100084.08;105151;1256;69175;-64
2023/08/08 02:07:21;;;;;;;4.70;1.30;;;;;;;12.44;90.01;100084.23;105351;1256;75461;-64
2023/08/08 02:09:50;;;;;;;4.70;1.70;;;;;;;12.40;90.04;100088.67;105212;1258;83353;-64
2023/08/08 02:12:18;;;;;;;3.50;1.40;;;;;;;12.35;90.04;100085.03;105313;1258;73620;-64
2023/08/08 02:14:45;;;;;;;5.10;1.50;;;;;;;12.29;90.22;100079.73;105252;1255;69129;-64
2023/08/08 02:17:12;;;;;;;4.90;1.20;;;;;;;12.25;90.25;100080.11;105258;1258;69133;-64
2023/08/08 02:19:38;;;;;;;4.00;1.30;;;;;;;12.21;90.29;100078.92;105236;1256;75782;-64
2023/08/08 02:22:05;;;;;;;6.10;1.70;;;;;;;12.17;90.30;100085.21;105103;1256;83286;-64
2023/08/08 02:24:32;;;;;;;3.40;1.50;;;;;;;12.16;90.58;100083.89;105240;1258;73803;-64
2023/08/08 02:26:59;;;;;;;3.20;1.70;;;;;;;12.13;90.64;100076.67;105188;1255;69058;-64
2023/08/08 02:29:26;;;;;;;3.40;1.40;;;;;;;12.10;90.62;100075.23;105118;1256;69186;-64
2023/08/08 02:31:53;;;;;;;5.50;1.70;;;;;;;12.06;90.58;100073.00;105098;1258;74964;-64
2023/08/08 02:34:20;;;;;;;5.20;1.60;;;;;;;12.02;90.68;100076.47;105115;1256;83330;-64
2023/08/08 02:36:47;;;;;;;6.40;2.10;;;;;;;12.01;90.80;100072.52;105107;1258;73920;-64
2023/08/08 02:39:14;;;;;;;5.50;1.50;;;;;;;11.97;90.94;100073.23;105230;1256;69089;-64
2023/08/08 02:41:41;;;;;;;5.90;1.50;;;;;;;11.93;91.00;100075.02;105231;1256;69197;-64
2023/08/08 02:44:07;;;;;;;2.50;1.40;;;;;;;11.91;90.98;100077.73;105172;1257;74775;-65
2023/08/08 02:46:36;;;;;;;3.60;1.40;;;;;;;11.90;91.36;100078.83;105235;1258;83596;-64
2023/08/08 02:49:04;;;;;;;6.00;1.40;;;;;;;11.88;91.22;100075.26;105277;1256;73436;-64
2023/08/08 02:51:31;;;;;;;4.00;1.40;;;;;;;11.85;91.23;100074.65;105186;1261;69745;-64
2023/08/08 02:53:58;;;;;;;5.10;1.40;;;;;;;11.83;91.12;100074.73;105327;1258;69391;-64
2023/08/08 02:56:27;;;;;;;3.30;1.30;;;;;;;11.82;91.36;100075.14;105220;1258;75578;-64
2023/08/08 02:58:54;;;;;;;5.80;1.60;;;;;;;11.82;91.49;100071.49;105275;1258;83222;-64
2023/08/08 03:01:21;;;;;;;3.00;1.50;;;;;;;11.81;91.40;100072.38;105301;1256;72467;-65
2023/08/08 03:03:48;;;;;;;2.40;1.30;;;;;;;11.79;91.27;100074.89;105244;1256;69104;-65
2023/08/08 03:06:17;;;;;;;5.20;2.60;;;;;;;11.79;91.65;100078.59;105221;1258;69186;-65
2023/08/08 03:08:44;;;;;;;3.50;1.60;;;;;;;11.78;91.59;100078.98;105202;1256;75520;-65
2023/08/08 03:11:11;;;;;;;4.40;1.60;;;;;;;11.77;91.41;100084.81;105211;1258;83342;-65
2023/08/08 03:13:38;;;;;;;5.00;2.20;;;;;;;11.75;91.49;100082.64;105253;1256;72438;-64
2023/08/08 03:16:05;;;;;;;3.90;1.60;;;;;;;11.73;91.56;100082.73;105243;1256;69124;-64
2023/08/08 03:18:33;;;;;;;6.90;2.10;;;;;;;11.71;91.50;100085.11;105217;1258;69186;-65
2023/08/08 03:21:00;;;;;;;3.30;1.30;;;;;;;11.70;91.64;100083.05;105254;1258;73787;-64
2023/08/08 03:23:28;;;;;;;5.70;1.70;;;;;;;11.69;91.68;100073.30;105207;1262;83215;-64
2023/08/08 03:25:55;;;;;;;5.10;1.40;;;;;;;11.69;91.73;100076.65;105117;1261;73750;-64
2023/08/08 03:28:25;;;;;;;3.80;1.30;;;;;;;11.66;91.53;100080.30;105220;1258;69187;-64
2023/08/08 03:30:52;;;;;;;4.40;1.40;;;;;;;11.64;91.77;100082.48;105276;1258;69447;-64
2023/08/08 03:33:21;;;;;;;6.20;1.70;;;;;;;11.60;91.78;100085.09;105176;1255;74638;-64
2023/08/08 03:35:48;;;;;;;4.30;1.50;;;;;;;11.58;91.57;100086.91;105265;1259;83296;-64
2023/08/08 03:38:15;;;;;;;6.40;1.40;;;;;;;11.58;91.92;100093.92;105312;1257;72607;-60
2023/08/08 03:40:42;;;;;;;7.50;2.20;;;;;;;11.58;92.05;100093.94;105107;1257;69190;-61
2023/08/08 03:43:09;;;;;;;4.40;1.30;;;;;;;11.58;92.17;100100.60;105255;1261;69200;-61
2023/08/08 03:45:36;;;;;;;6.60;2.10;;;;;;;11.58;92.18;100108.98;105261;1256;75406;-61
2023/08/08 03:48:03;;;;;;;4.20;1.50;;;;;;;11.58;92.24;100106.33;105156;1261;83314;-62
2023/08/08 03:50:31;;;;;;;3.80;1.50;;;;;;;11.59;92.10;100107.17;105152;1259;73803;-61
2023/08/08 03:52:58;;;;;;;5.80;1.50;;;;;;;11.59;92.17;100106.51;105212;1256;69180;-61
2023/08/08 03:55:25;;;;;;;4.10;1.60;;;;;;;11.59;92.17;100110.53;105236;1258;69197;-62
2023/08/08 03:57:52;;;;;;;5.60;1.60;;;;;;;11.57;92.27;100114.45;105227;1256;75638;-61
2023/08/08 04:00:19;;;;;;;4.30;1.70;;;;;;;11.55;92.35;100120.14;105154;1262;83170;-61
2023/08/08 04:02:46;;;;;;;2.90;1.30;;;;;;;11.55;92.35;100127.48;105208;1256;73709;-62
2023/08/08 04:05:13;;;;;;;3.10;1.50;;;;;;;11.55;92.52;100134.15;105330;1259;69175;-61
2023/08/08 04:07:40;;;;;;;5.70;1.70;;;;;;;11.55;92.55;100142.20;105087;1257;69176;-61
2023/08/08 04:10:07;;;;;;;5.80;1.50;;;;;;;11.57;92.78;100146.33;105263;1256;75551;-61
2023/08/08 04:12:34;;;;;;;6.40;1.40;;;;;;;11.58;92.82;100149.59;105231;1256;83435;-61
2023/08/08 04:15:01;;;;;;;4.10;1.70;;;;;;;11.59;92.84;100151.96;105220;1257;71810;-62
2023/08/08 04:17:28;;;;;;;6.10;1.60;;;;;;;11.62;93.03;100152.75;105294;1257;69287;-61
2023/08/08 04:19:55;;;;;;;3.70;1.50;;;;;;;11.65;92.90;100158.75;105245;1258;69529;-62
2023/08/08 04:22:22;;;;;;;4.80;1.80;;;;;;;11.67;93.06;100158.30;105212;1258;75891;-61
2023/08/08 04:24:50;;;;;;;5.20;1.30;;;;;;;11.68;92.99;100159.96;105241;1257;82210;-61
2023/08/08 04:27:16;;;;;;;4.80;1.80;;;;;;;11.70;93.06;100157.29;105229;1256;72635;-61
2023/08/08 04:29:43;;;;;;;4.00;1.20;;;;;;;11.71;93.12;100160.75;105274;1258;69204;-61
2023/08/08 04:32:10;;;;;;;5.00;1.40;;;;;;;11.73;93.24;100159.59;105214;1258;69337;-61
2023/08/08 04:34:37;;;;;;;2.80;1.60;;;;;;;11.75;93.10;100161.96;105217;1256;74719;-61
2023/08/08 04:37:04;;;;;;;5.50;1.30;;;;;;;11.76;93.20;100163.99;105206;1257;83762;-62
2023/08/08 04:39:31;;;;;;;4.10;1.40;;;;;;;11.77;93.26;100168.85;105267;1258;73821;-62
2023/08/08 04:41:58;;;;;;;4.90;1.60;;;;;;;11.79;93.34;100163.88;105211;1258;69187;-61
2023/08/08 04:44:26;;;;;;;3.30;1.50;;;;;;;11.81;93.33;100173.77;105213;1256;69197;-61
2023/08/08 04:46:53;;;;;;;3.80;1.80;;;;;;;11.82;93.26;100172.80;105242;1256;74531;-61
2023/08/08 04:49:20;;;;;;;3.00;1.50;;;;;;;11.84;93.50;100170.98;105296;1258;83105;-62
2023/08/08 04:51:46;;;;;;;3.20;1.50;;;;;;;11.87;93.44;100175.79;105224;1258;72624;-62
2023/08/08 04:54:14;;;;;;;4.20;1.50;;;;;;;11.90;93.62;100177.42;105260;1258;69191;-62
2023/08/08 04:56:40;;;;;;;3.20;1.40;;;;;;;11.91;93.51;100179.11;105236;1259;69180;-62
2023/08/08 04:59:07;;;;;;;4.40;1.40;;;;;;;11.92;93.56;100186.42;105271;1256;74548;-62
2023/08/08 05:01:34;;;;;;;7.50;2.10;;;;;;;11.93;93.47;100184.98;105204;1256;82300;-62
2023/08/08 05:04:01;;;;;;;4.10;1.30;;;;;;;11.94;93.80;100185.95;105091;1260;72708;-62
2023/08/08 05:06:28;;;;;;;2.40;1.60;;;;;;;11.96;93.92;100186.41;105159;1260;69201;-62
2023/08/08 05:08:56;;;;;;;4.00;1.60;;;;;;;11.98;93.89;100192.25;105143;1260;69118;-62
2023/08/08 05:11:23;;;;;;;3.60;1.70;;;;;;;12.02;94.12;100188.95;105193;1258;75621;-61
2023/08/08 05:13:50;;;;;;;4.40;1.20;;;;;;;12.06;94.15;100190.31;105142;1256;82414;-62
2023/08/08 05:16:18;;;;;;;6.40;2.00;;;;;;;12.11;94.27;100189.90;105148;1259;72600;-61
2023/08/08 05:18:45;;;;;;;3.10;1.50;;;;;;;12.17;94.23;100187.01;105167;1258;69216;-62
2023/08/08 05:21:12;;;;;;;4.80;1.30;;;;;;;12.22;94.38;100190.42;105256;1258;69200;-61
2023/08/08 05:23:39;;;;;;;4.40;1.30;;;;;;;12.29;94.40;100185.91;105254;1256;75375;-61
2023/08/08 05:26:06;;;;;;;5.60;1.50;;;;;;;12.38;94.30;100187.94;105338;1258;83477;-62
2023/08/08 05:28:33;;;;;;;3.40;1.50;;;;;;;12.45;94.35;100190.56;105226;1256;72894;-61
2023/08/08 05:31:01;;;;;;;4.70;1.50;;;;;;;12.53;94.27;100192.45;105211;1258;69083;-62
2023/08/08 05:33:28;;;;;;;2.60;1.20;;;;;;;12.61;94.00;100191.22;105256;1256;69165;-62
2023/08/08 05:35:56;;;;;;;1.50;1.20;;;;;;;12.67;93.92;100188.11;105210;1256;74602;-62
2023/08/08 05:38:23;;;;;;;3.30;1.30;;;;;;;12.75;93.89;100194.71;105138;1256;83862;-61
2023/08/08 05:40:50;;;;;;;4.40;1.90;;;;;;;12.83;93.82;100192.60;105209;1259;72518;-60
2023/08/08 05:43:18;;;;;;;5.90;1.70;;;;;;;12.89;93.77;100187.02;105403;1256;69216;-61
2023/08/08 05:45:45;;;;;;;3.70;1.30;;;;;;;12.97;93.66;100189.25;105316;1256;69853;-61
2023/08/08 05:48:12;;;;;;;3.50;1.50;;;;;;;13.05;93.61;100183.05;105217;1256;75500;-63
2023/08/08 05:50:39;;;;;;;4.60;1.20;;;;;;;13.12;93.45;100184.12;105165;1256;82447;-64
2023/08/08 05:53:07;;;;;;;4.40;1.40;;;;;;;13.15;92.88;100182.34;105365;1258;73786;-62
2023/08/08 05:55:34;;;;;;;3.80;1.50;;;;;;;13.19;92.87;100180.93;105282;1256;69144;-63
2023/08/08 05:58:01;;;;;;;2.00;1.20;;;;;;;13.23;92.42;100184.05;108916;1258;66918;-61
2023/08/08 06:00:28;;;;;;;6.30;1.40;;;;;;;13.28;92.27;100181.71;108991;1254;74081;-61
2023/08/08 06:02:56;;;;;;;5.30;2.10;;;;;;;13.35;92.38;100182.08;108988;1256;83452;-61
2023/08/08 06:05:24;;;;;;;5.70;1.60;;;;;;;13.43;92.17;100181.48;108974;1255;72697;-61
2023/08/08 06:07:50;;;;;;;5.30;1.60;;;;;;;13.50;91.75;100185.65;108964;1255;67865;-60
2023/08/08 06:10:17;;;;;;;3.50;1.30;;;;;;;13.59;91.44;100183.11;107589;1256;69181;-60
2023/08/08 06:12:44;;;;;;;2.30;1.40;;;;;;;13.67;91.10;100188.81;105560;1258;75458;-60
2023/08/08 06:15:11;;;;;;;3.70;1.90;;;;;;;13.74;90.86;100186.86;105292;1259;83076;-60
2023/08/08 06:17:39;;;;;;;4.30;1.40;;;;;;;13.84;90.74;100183.02;105318;1256;73648;-59
2023/08/08 06:20:10;;;;;;;4.50;1.60;;;;;;;13.93;90.62;100189.17;105273;1262;69139;-60
2023/08/08 06:22:37;;;;;;;4.40;1.30;;;;;;;14.04;90.51;100188.59;105332;1259;69079;-60
2023/08/08 06:25:05;;;;;;;2.80;1.30;;;;;;;14.12;89.94;100190.79;105219;1259;75859;-59
2023/08/08 06:27:32;;;;;;;4.00;1.30;;;;;;;14.22;89.61;100189.36;105640;1256;83174;-60
2023/08/08 06:29:59;;;;;;;3.20;1.10;;;;;;;14.33;89.31;100197.52;105133;1260;73015;-59
2023/08/08 06:32:26;;;;;;;3.60;1.40;;;;;;;14.41;88.68;100190.77;105252;1258;69214;-60
2023/08/08 06:34:55;;;;;;;3.20;1.20;;;;;;;14.46;88.06;100189.23;105312;1261;69167;-60
2023/08/08 06:37:21;;;;;;;5.70;1.40;;;;;;;14.52;87.72;100184.35;105146;1256;75631;-60
2023/08/08 06:39:48;;;;;;;3.20;1.40;;;;;;;14.61;87.63;100186.86;105180;1260;83308;-60
2023/08/08 06:42:15;;;;;;;4.30;1.40;;;;;;;14.68;87.05;100186.39;105138;1261;73943;-59
2023/08/08 06:44:50;;;;;;;2.20;1.10;;;;;;;14.79;86.84;100181.76;105175;1257;69068;-60
2023/08/08 06:47:17;;;;;;;2.90;1.20;;;;;;;14.91;86.64;100177.02;105378;1260;69149;-59
2023/08/08 06:49:44;;;;;;;2.40;1.30;;;;;;;15.05;86.49;100178.16;105468;1256;75533;-59
2023/08/08 06:52:11;;;;;;;3.10;1.40;;;;;;;15.16;86.10;100179.40;105146;1261;84390;-60
2023/08/08 06:54:38;;;;;;;2.20;1.00;;;;;;;15.29;85.87;100173.02;105274;1256;73714;-59
2023/08/08 06:57:05;;;;;;;3.30;1.10;;;;;;;15.38;85.39;100177.17;105161;1261;69122;-59
2023/08/08 06:59:32;;;;;;;7.90;1.60;;;;;;;15.45;84.91;100177.48;105338;1258;69181;-59
2023/08/08 07:01:59;;;;;;;3.50;1.20;;;;;;;15.48;84.15;100189.80;105180;1261;74684;-59
2023/08/08 07:04:26;;;;;;;2.30;1.10;;;;;;;15.49;83.53;100195.56;105294;1260;83668;-59
2023/08/08 07:06:53;;;;;;;3.00;1.00;;;;;;;15.49;82.83;100192.77;105193;1258;73792;-59
2023/08/08 07:09:21;;;;;;;1.70;0.90;;;;;;;15.48;82.41;100195.61;105164;1262;69237;-59
2023/08/08 07:11:48;;;;;;;1.90;1.20;;;;;;;15.47;81.88;100192.72;105189;1260;69194;-60
2023/08/08 07:14:15;;;;;;;2.50;1.10;;;;;;;15.48;81.77;100203.71;105528;1260;74558;-60
2023/08/08 07:16:42;;;;;;;7.70;1.20;;;;;;;15.53;82.03;100200.09;105926;1259;82594;-60
2023/08/08 07:19:10;;;;;;;1.60;1.00;;;;;;;15.59;82.07;100205.16;105128;1270;72689;-59
2023/08/08 07:21:37;;;;;;;3.60;1.10;;;;;;;15.63;81.50;100215.49;105121;1262;69209;-60
2023/08/08 07:24:04;;;;;;;2.30;1.10;;;;;;;15.60;80.23;100214.09;105181;1261;69181;-60
2023/08/08 07:26:31;;;;;;;4.30;1.10;;;;;;;15.50;80.02;100221.54;105127;1261;74603;-59
2023/08/08 07:28:58;;;;;;;5.20;1.20;;;;;;;15.47;79.58;100226.13;105144;1256;83897;-59
2023/08/08 07:31:25;;;;;;;3.80;1.30;;;;;;;15.53;79.70;100218.38;105146;1260;73749;-59
2023/08/08 07:33:52;;;;;;;10.70;2.10;;;;;;;15.72;79.82;100220.94;105204;1261;69175;-60
2023/08/08 07:36:19;;;;;;;3.10;1.30;;;;;;;15.88;79.60;100219.99;105134;1260;69176;-59
2023/08/08 07:38:46;;;;;;;2.40;1.10;;;;;;;16.04;79.84;100217.95;105172;1256;74503;-59
2023/08/08 07:41:13;;;;;;;16.50;2.60;;;;;;;16.20;79.59;100217.26;105168;1256;83654;-59
2023/08/08 07:43:40;;;;;;;3.10;1.10;;;;;;;16.18;77.43;100228.70;105137;1260;72511;-59
2023/08/08 07:46:07;;;;;;;2.90;1.70;;;;;;;16.10;77.22;100221.60;105015;1260;210181;-59
2023/08/08 07:48:35;;;;;;;1.60;1.00;;;;;;;16.12;77.65;100219.58;105147;1259;69166;-59
2023/08/08 07:51:03;;;;;;;2.00;1.20;;;;;;;16.14;77.39;100220.48;105235;1256;75581;-59
2023/08/08 07:53:30;;;;;;;3.90;1.20;;;;;;;16.15;77.09;100223.42;105158;1259;83378;-59
2023/08/08 07:55:57;;;;;;;2.00;1.10;;;;;;;16.13;76.85;100219.50;105125;1256;72558;-59
2023/08/08 07:58:25;;;;;;;4.40;1.30;;;;;;;16.16;77.22;100212.40;105117;1260;69073;-59
2023/08/08 08:00:53;;;;;;;8.30;1.80;;;;;;;16.30;77.44;100212.27;105140;1263;69108;-59
2023/08/08 08:03:20;;;;;;;3.50;1.10;;;;;;;16.42;77.46;100211.09;105213;1256;75373;-59
2023/08/08 08:05:47;;;;;;;4.80;1.30;;;;;;;16.55;77.06;100208.17;105213;1262;83164;-59
2023/08/08 08:08:14;;;;;;;4.20;1.30;;;;;;;16.62;75.91;100205.42;105117;1256;73554;-60
2023/08/08 08:10:41;;;;;;;24.00;3.60;;;;;;;16.70;75.38;100209.80;105129;1261;69164;-61
2023/08/08 08:13:08;;;;;;;2.50;1.30;;;;;;;16.79;75.37;100208.18;105114;1260;69146;-59
2023/08/08 08:15:35;;;;;;;4.60;1.50;;;;;;;16.83;74.52;100203.31;105187;1260;75452;-61
2023/08/08 08:18:03;;;;;;;4.80;0.90;;;;;;;16.94;75.03;100195.41;105184;1256;83105;-59
2023/08/08 08:20:30;;;;;;;2.60;1.00;;;;;;;17.09;75.22;100200.35;105168;1257;73920;-59
2023/08/08 08:22:57;;;;;;;2.70;1.20;;;;;;;17.15;74.59;100201.21;105153;1261;69015;-60
2023/08/08 08:25:24;;;;;;;1.90;0.90;;;;;;;17.11;74.05;100201.44;105160;1262;69200;-60
2023/08/08 08:27:50;;;;;;;2.00;0.90;;;;;;;17.10;73.85;100201.16;105283;1259;75644;-62
2023/08/08 08:30:18;;;;;;;2.20;0.90;;;;;;;17.06;73.33;100199.86;105286;1259;83491;-62
2023/08/08 08:32:46;;;;;;;2.30;0.80;;;;;;;17.02;72.79;100197.32;105453;1260;73593;-61
2023/08/08 08:35:13;;;;;;;2.30;1.00;;;;;;;16.99;73.03;100192.96;105519;1260;70783;-61
2023/08/08 08:37:40;;;;;;;2.40;1.00;;;;;;;17.06;73.52;100199.20;105465;1256;69187;-61
2023/08/08 08:40:08;;;;;;;5.00;0.90;;;;;;;17.07;72.82;100199.61;105452;1260;75614;-60
2023/08/08 08:42:37;;;;;;;1.20;0.80;;;;;;;17.05;72.52;100200.33;105454;1258;83315;-60
2023/08/08 08:45:05;;;;;;;1.50;0.90;;;;;;;17.05;72.28;100199.40;105393;1255;73552;-60
2023/08/08 08:47:33;;;;;;;1.30;0.80;;;;;;;17.05;72.11;100192.00;105438;1260;69182;-60
2023/08/08 08:50:02;;;;;;;1.50;1.10;;;;;;;17.08;72.34;100189.31;105312;1260;69102;-60
2023/08/08 08:52:29;;;;;;;2.00;0.70;;;;;;;17.15;71.68;100202.09;105464;1259;75656;-60
2023/08/08 08:54:57;;;;;;;1.50;0.70;;;;;;;17.09;70.06;100202.45;105437;1260;83576;-60
2023/08/08 08:57:24;;;;;;;0.90;0.60;;;;;;;17.07;70.49;100195.23;105421;1259;73792;-60
2023/08/08 08:59:52;;;;;;;4.20;0.90;;;;;;;17.14;70.74;100197.55;105503;1260;69147;-61
2023/08/08 09:02:19;;;;;;;1.60;0.90;;;;;;;17.25;71.25;100192.97;105458;1260;69125;-59
2023/08/08 09:04:46;;;;;;;2.50;1.00;;;;;;;17.42;71.51;100198.11;105446;1259;75804;-60
2023/08/08 09:07:14;;;;;;;4.60;1.00;;;;;;;17.54;71.01;100200.13;105522;1258;83364;-60
2023/08/08 09:09:44;;;;;;;2.00;1.10;;;;;;;17.63;69.89;100204.77;105372;1254;72703;-60
2023/08/08 09:12:12;;;;;;;2.80;1.10;;;;;;;17.70;69.30;100201.50;105402;1254;69461;-61
2023/08/08 09:14:41;;;;;;;3.20;1.00;;;;;;;17.76;68.95;100202.01;105416;1260;69173;-58
2023/08/08 09:17:13;;;;;;;1.30;0.90;;;;;;;17.75;68.94;100199.54;105492;1260;75856;-58
2023/08/08 09:19:44;;;;;;;2.20;0.80;;;;;;;17.82;68.78;100197.14;105361;1260;83549;-59
2023/08/08 09:22:12;;;;;;;1.20;0.70;;;;;;;17.87;68.78;100198.20;105286;1260;72554;-59
2023/08/08 09:24:40;;;;;;;6.30;1.00;;;;;;;17.84;67.51;100202.31;105281;1256;69198;-59
2023/08/08 09:27:09;;;;;;;1.90;0.70;;;;;;;17.69;67.06;100196.28;105341;1259;69202;-59
2023/08/08 09:29:37;;;;;;;1.20;0.60;;;;;;;17.60;67.05;100202.76;105467;1253;75728;-59
2023/08/08 09:32:07;;;;;;;3.50;0.70;;;;;;;17.56;67.27;100205.66;105272;1254;82617;-59
2023/08/08 09:34:34;;;;;;;2.50;1.00;;;;;;;17.61;67.10;100211.13;105261;1258;73510;-59
2023/08/08 09:37:02;;;;;;;5.20;0.90;;;;;;;17.65;67.05;100204.70;105316;1260;69141;-59
2023/08/08 09:39:29;;;;;;;1.90;0.90;;;;;;;17.68;66.71;100206.97;105285;1259;69248;-59
2023/08/08 09:41:56;;;;;;;2.80;0.90;;;;;;;17.76;67.27;100201.41;105319;1258;75524;-59
2023/08/08 09:44:27;;;;;;;2.10;0.80;;;;;;;17.84;67.42;100205.67;105247;1259;82534;-59
2023/08/08 09:46:54;;;;;;;1.10;0.70;;;;;;;17.93;67.38;100197.08;105363;1257;73740;-59
2023/08/08 09:49:21;;;;;;;2.70;1.00;;;;;;;18.01;66.94;100211.53;105247;1256;69195;-59
2023/08/08 09:51:49;;;;;;;3.70;1.00;;;;;;;17.91;66.16;100201.52;105466;1258;69183;-59
2023/08/08 09:54:16;;;;;;;1.40;0.90;;;;;;;17.88;66.78;100200.83;105429;1259;75892;-59
2023/08/08 09:56:44;;;;;;;2.60;0.80;;;;;;;18.00;67.14;100200.46;105384;1254;83354;-59
2023/08/08 09:59:12;;;;;;;3.40;1.00;;;;;;;18.18;67.52;100199.00;105397;1258;72894;-59
2023/08/08 10:01:41;;;;;;;2.60;1.10;;;;;;;18.30;66.88;100199.39;105520;1259;69068;-59
2023/08/08 10:04:09;;;;;;;2.70;1.10;;;;;;;18.35;66.69;100198.52;105457;1259;69169;-59
2023/08/08 10:06:35;;;;;;;8.60;1.90;;;;;;;18.40;65.58;100198.46;105443;1260;75442;-59
2023/08/08 10:09:03;;;;;;;1.90;1.10;;;;;;;18.34;65.31;100201.76;105406;1254;83659;-59
2023/08/08 10:11:32;;;;;;;1.70;0.90;;;;;;;18.21;65.40;100195.63;105342;1258;72845;-58
2023/08/08 10:14:03;;;;;;;1.80;0.90;;;;;;;18.05;65.64;100193.59;105219;1261;69145;-59
2023/08/08 10:16:33;;;;;;;3.80;0.90;;;;;;;17.90;65.81;100192.75;105194;1256;70024;-59
2023/08/08 10:19:03;;;;;;;1.90;0.80;;;;;;;17.75;66.00;100190.39;105244;1257;74712;-59
2023/08/08 10:21:41;;;;;;;2.80;1.30;;;;;;;17.68;66.52;100187.73;105313;1263;82226;-59
2023/08/08 10:24:09;;;;;;;3.70;1.10;;;;;;;17.74;66.86;100185.13;105321;1257;73660;-59
2023/08/08 10:27:05;;;;;;;15.90;3.10;;;;;;;17.92;67.35;100184.08;105415;1260;69317;-60
2023/08/08 10:29:33;;;;;;;2.90;1.00;;;;;;;18.11;66.62;100192.96;105289;1260;69186;-61
2023/08/08 10:32:03;;;;;;;;;;;;;;;18.13;66.12;100186.46;105481;1260;74620;-60
2023/08/08 10:34:42;;;;;;;8.20;1.40;;;;;;;18.17;66.09;100183.50;105411;1260;83238;-60
2023/08/08 10:37:12;;;;;;;1.90;1.10;;;;;;;18.31;65.69;100175.61;105405;1254;72548;-60
2023/08/08 10:40:11;;;;;;;1.60;0.90;;;;;;;18.33;65.60;100164.66;105419;1254;69172;-60
2023/08/08 10:42:42;;;;;;;2.50;1.20;;;;;;;18.52;65.67;100174.06;105323;1260;69128;-60
2023/08/08 10:45:14;;;;;;;2.80;0.90;;;;;;;18.77;65.20;100172.23;105463;1258;75826;-60
2023/08/08 10:47:42;;;;;;;3.30;1.10;;;;;;;18.98;64.05;100166.41;105411;1254;82327;-60
2023/08/08 10:50:11;;;;;;;1.90;1.00;;;;;;;19.18;64.13;100164.87;105430;1258;72693;-60
2023/08/08 10:52:54;;;;;;;4.10;1.30;;;;;;;19.42;64.26;100155.29;105467;1259;69194;-60
2023/08/08 10:55:31;;;;;;;2.70;0.90;;;;;;;19.64;63.88;100160.81;105431;1255;69122;-60
2023/08/08 10:58:06;;;;;;;2.10;0.90;;;;;;;19.96;62.95;100168.70;105411;1257;74813;-61
2023/08/08 11:00:35;;;;;;;4.80;1.00;;;;;;;20.24;62.34;100162.37;105445;1258;83357;-60
2023/08/08 11:03:06;;;;;;;2.10;1.00;;;;;;;20.29;61.16;100157.39;105411;1258;73581;-60
2023/08/08 11:05:35;;;;;;;3.20;1.00;;;;;;;20.22;61.18;100155.13;105438;1264;69147;-59
2023/08/08 11:08:04;;;;;;;2.60;1.10;;;;;;;20.29;60.32;100159.72;105376;1258;69189;-62
2023/08/08 11:10:35;;;;;;;5.10;1.10;;;;;;;20.56;60.31;100160.16;105443;1254;75856;-62
2023/08/08 11:13:04;;;;;;;1.70;1.00;;;;;;;20.74;59.66;100150.00;105432;1260;83622;-61
2023/08/08 11:15:33;;;;;;;2.90;1.00;;;;;;;20.96;59.86;100152.60;105390;1257;73939;-62
2023/08/08 11:18:02;;;;;;;2.60;1.10;;;;;;;21.36;59.58;100147.60;105485;1258;69099;-62
2023/08/08 11:20:34;;;;;;;2.40;0.80;;;;;;;21.44;57.90;100141.10;105408;1257;69106;-62